sensor_id;sensor_type;location;lat;lon;timestamp;pressure;altitude;pressure_sealevel;temperature;humidity
60069;BME280;45945;53.350;55.922;2022-07-06T00:00:29;99535.63;;;13.15;83.10
60069;BME280;45945;53.350;55.922;2022-07-06T00:01:29;99537.38;;;13.16;82.80
60069;BME280;45945;53.350;55.922;2022-07-06T00:02:30;99543.56;;;13.21;81.58
60069;BME280;45945;53.350;55.922;2022-07-06T00:03:31;99535.69;;;13.24;82.10
60069;BME280;45945;53.350;55.922;2022-07-06T00:04:32;99530.41;;;13.18;82.71
60069;BME280;45945;53.350;55.922;2022-07-06T00:05:33;99531.31;;;13.25;82.29
60069;BME280;45945;53.350;55.922;2022-07-06T00:06:33;99528.72;;;13.29;82.33
60069;BME280;45945;53.350;55.922;2022-07-06T00:07:34;99531.41;;;13.34;82.64
60069;BME280;45945;53.350;55.922;2022-07-06T00:08:36;99530.56;;;13.37;83.14
60069;BME280;45945;53.350;55.922;2022-07-06T00:09:37;99532.31;;;13.35;83.02
60069;BME280;45945;53.350;55.922;2022-07-06T00:10:38;99532.34;;;13.36;82.97
60069;BME280;45945;53.350;55.922;2022-07-06T00:11:38;99529.72;;;13.38;82.75
60069;BME280;45945;53.350;55.922;2022-07-06T00:12:39;99526.19;;;13.39;82.52
60069;BME280;45945;53.350;55.922;2022-07-06T00:13:40;99530.59;;;13.40;82.78
60069;BME280;45945;53.350;55.922;2022-07-06T00:14:41;99533.22;;;13.40;82.47
60069;BME280;45945;53.350;55.922;2022-07-06T00:15:42;99536.69;;;13.39;82.88
60069;BME280;45945;53.350;55.922;2022-07-06T00:16:42;99530.59;;;13.38;83.53
60069;BME280;45945;53.350;55.922;2022-07-06T00:17:43;99537.59;;;13.38;82.45
60069;BME280;45945;53.350;55.922;2022-07-06T00:18:44;99534.97;;;13.39;82.05
60069;BME280;45945;53.350;55.922;2022-07-06T00:19:45;99531.44;;;13.37;82.77
60069;BME280;45945;53.350;55.922;2022-07-06T00:20:46;99527.09;;;13.38;82.89
60069;BME280;45945;53.350;55.922;2022-07-06T00:21:47;99534.97;;;13.39;82.46
60069;BME280;45945;53.350;55.922;2022-07-06T00:22:47;99548.13;;;13.41;81.94
60069;BME280;45945;53.350;55.922;2022-07-06T00:23:48;99547.19;;;13.37;81.68
60069;BME280;45945;53.350;55.922;2022-07-06T00:24:49;99548.13;;;13.41;82.70
60069;BME280;45945;53.350;55.922;2022-07-06T00:25:50;99546.31;;;13.37;83.12
60069;BME280;45945;53.350;55.922;2022-07-06T00:26:50;99561.25;;;13.39;83.21
60069;BME280;45945;53.350;55.922;2022-07-06T00:27:51;99558.63;;;13.39;82.38
60069;BME280;45945;53.350;55.922;2022-07-06T00:28:52;99548.97;;;13.38;82.67
60069;BME280;45945;53.350;55.922;2022-07-06T00:29:53;99553.28;;;13.32;83.29
60069;BME280;45945;53.350;55.922;2022-07-06T00:30:54;99558.47;;;13.28;83.48
60069;BME280;45945;53.350;55.922;2022-07-06T00:31:55;99555.00;;;13.33;83.06
60069;BME280;45945;53.350;55.922;2022-07-06T00:32:56;99555.97;;;13.38;83.17
60069;BME280;45945;53.350;55.922;2022-07-06T00:33:58;99559.44;;;13.37;83.09
60069;BME280;45945;53.350;55.922;2022-07-06T00:34:59;99563.84;;;13.36;83.45
60069;BME280;45945;53.350;55.922;2022-07-06T00:36:00;99561.25;;;13.41;82.97
60069;BME280;45945;53.350;55.922;2022-07-06T00:37:00;99559.47;;;13.40;82.56
60069;BME280;45945;53.350;55.922;2022-07-06T00:38:01;99557.72;;;13.39;81.94
60069;BME280;45945;53.350;55.922;2022-07-06T00:39:02;99558.59;;;13.38;81.72
60069;BME280;45945;53.350;55.922;2022-07-06T00:40:03;99556.84;;;13.38;81.25
60069;BME280;45945;53.350;55.922;2022-07-06T00:41:04;99555.97;;;13.38;81.54
60069;BME280;45945;53.350;55.922;2022-07-06T00:42:05;99564.75;;;13.44;81.13
60069;BME280;45945;53.350;55.922;2022-07-06T00:43:05;99563.91;;;13.44;81.88
60069;BME280;45945;53.350;55.922;2022-07-06T00:44:07;99562.09;;;13.37;82.04
60069;BME280;45945;53.350;55.922;2022-07-06T00:45:08;99562.00;;;13.29;80.93
60069;BME280;45945;53.350;55.922;2022-07-06T00:46:10;99566.50;;;13.41;80.72
60069;BME280;45945;53.350;55.922;2022-07-06T00:47:11;99557.75;;;13.45;81.37
60069;BME280;45945;53.350;55.922;2022-07-06T00:48:11;99553.38;;;13.42;80.85
60069;BME280;45945;53.350;55.922;2022-07-06T00:49:12;99561.31;;;13.49;80.86
60069;BME280;45945;53.350;55.922;2022-07-06T00:50:33;99544.59;;;13.42;80.18
60069;BME280;45945;53.350;55.922;2022-07-06T00:51:35;99543.75;;;13.43;80.43
60069;BME280;45945;53.350;55.922;2022-07-06T00:52:37;99547.25;;;13.46;80.47
60069;BME280;45945;53.350;55.922;2022-07-06T00:53:37;99548.19;;;13.53;81.31
60069;BME280;45945;53.350;55.922;2022-07-06T00:54:39;99555.25;;;13.57;80.38
60069;BME280;45945;53.350;55.922;2022-07-06T00:55:40;99555.28;;;13.62;80.16
60069;BME280;45945;53.350;55.922;2022-07-06T00:56:41;99553.47;;;13.58;80.72
60069;BME280;45945;53.350;55.922;2022-07-06T00:57:41;99554.34;;;13.55;81.05
60069;BME280;45945;53.350;55.922;2022-07-06T00:58:42;99563.13;;;13.57;81.43
60069;BME280;45945;53.350;55.922;2022-07-06T00:59:43;99557.88;;;13.59;81.63
60069;BME280;45945;53.350;55.922;2022-07-06T01:00:44;99560.47;;;13.54;82.63
60069;BME280;45945;53.350;55.922;2022-07-06T01:01:45;99569.19;;;13.52;82.31
60069;BME280;45945;53.350;55.922;2022-07-06T01:02:46;99563.13;;;13.57;81.71
60069;BME280;45945;53.350;55.922;2022-07-06T01:03:47;99565.69;;;13.51;81.94
60069;BME280;45945;53.350;55.922;2022-07-06T01:04:48;99564.81;;;13.52;83.00
60069;BME280;45945;53.350;55.922;2022-07-06T01:05:49;99568.34;;;13.54;82.23
60069;BME280;45945;53.350;55.922;2022-07-06T01:06:50;99565.69;;;13.51;82.49
60069;BME280;45945;53.350;55.922;2022-07-06T01:07:52;99569.22;;;13.53;81.29
60069;BME280;45945;53.350;55.922;2022-07-06T01:08:53;99570.06;;;13.52;81.98
60069;BME280;45945;53.350;55.922;2022-07-06T01:09:55;99568.31;;;13.51;83.51
60069;BME280;45945;53.350;55.922;2022-07-06T01:10:56;99565.66;;;13.50;82.59
60069;BME280;45945;53.350;55.922;2022-07-06T01:11:57;99564.81;;;13.52;82.35
60069;BME280;45945;53.350;55.922;2022-07-06T01:12:58;99569.22;;;13.53;82.79
60069;BME280;45945;53.350;55.922;2022-07-06T01:14:00;99571.00;;;13.57;82.82
60069;BME280;45945;53.350;55.922;2022-07-06T01:15:02;99571.00;;;13.59;82.39
60069;BME280;45945;53.350;55.922;2022-07-06T01:16:03;99563.94;;;13.52;82.57
60069;BME280;45945;53.350;55.922;2022-07-06T01:17:05;99561.34;;;13.55;82.33
60069;BME280;45945;53.350;55.922;2022-07-06T01:18:06;99560.47;;;13.53;82.97
60069;BME280;45945;53.350;55.922;2022-07-06T01:19:06;99556.91;;;13.47;82.12
60069;BME280;45945;53.350;55.922;2022-07-06T01:20:14;99560.41;;;13.48;82.42
60069;BME280;45945;53.350;55.922;2022-07-06T01:21:15;99565.66;;;13.48;83.25
60069;BME280;45945;53.350;55.922;2022-07-06T01:22:16;99571.78;;;13.45;82.10
60069;BME280;45945;53.350;55.922;2022-07-06T01:23:18;99564.81;;;13.54;82.09
60069;BME280;45945;53.350;55.922;2022-07-06T01:24:18;99568.38;;;13.56;82.79
60069;BME280;45945;53.350;55.922;2022-07-06T01:25:20;99564.91;;;13.64;82.30
60069;BME280;45945;53.350;55.922;2022-07-06T01:26:21;99561.41;;;13.65;82.39
60069;BME280;45945;53.350;55.922;2022-07-06T01:27:22;99558.81;;;13.69;82.48
60069;BME280;45945;53.350;55.922;2022-07-06T01:28:22;99557.91;;;13.63;82.65
60069;BME280;45945;53.350;55.922;2022-07-06T01:29:23;99555.31;;;13.70;82.63
60069;BME280;45945;53.350;55.922;2022-07-06T01:30:24;99560.59;;;13.73;83.23
60069;BME280;45945;53.350;55.922;2022-07-06T01:31:25;99556.22;;;13.75;82.55
60069;BME280;45945;53.350;55.922;2022-07-06T01:32:26;99556.16;;;13.67;83.48
60069;BME280;45945;53.350;55.922;2022-07-06T01:33:28;99555.31;;;13.67;82.57
60069;BME280;45945;53.350;55.922;2022-07-06T01:34:28;99553.56;;;13.72;82.76
60069;BME280;45945;53.350;55.922;2022-07-06T01:35:29;99550.13;;;13.79;82.86
60069;BME280;45945;53.350;55.922;2022-07-06T01:36:32;99551.00;;;13.79;82.64
60069;BME280;45945;53.350;55.922;2022-07-06T01:37:32;99551.03;;;13.86;82.69
60069;BME280;45945;53.350;55.922;2022-07-06T01:38:42;99557.19;;;13.91;81.78
60069;BME280;45945;53.350;55.922;2022-07-06T01:39:43;99559.84;;;13.95;81.27
60069;BME280;45945;53.350;55.922;2022-07-06T01:40:44;99559.78;;;13.83;82.93
60069;BME280;45945;53.350;55.922;2022-07-06T01:41:45;99556.28;;;13.87;82.65
60069;BME280;45945;53.350;55.922;2022-07-06T01:42:45;99558.09;;;13.96;82.43
60069;BME280;45945;53.350;55.922;2022-07-06T01:43:47;99561.59;;;13.96;81.60
60069;BME280;45945;53.350;55.922;2022-07-06T01:44:48;99555.50;;;14.02;81.74
60069;BME280;45945;53.350;55.922;2022-07-06T01:45:49;99559.88;;;14.03;81.40
60069;BME280;45945;53.350;55.922;2022-07-06T01:46:49;99560.75;;;14.04;82.60
60069;BME280;45945;53.350;55.922;2022-07-06T01:47:50;99554.63;;;14.05;82.14
60069;BME280;45945;53.350;55.922;2022-07-06T01:48:52;99561.66;;;14.03;81.61
60069;BME280;45945;53.350;55.922;2022-07-06T01:49:53;99556.41;;;14.03;81.85
60069;BME280;45945;53.350;55.922;2022-07-06T01:50:55;99552.88;;;14.04;81.60
60069;BME280;45945;53.350;55.922;2022-07-06T01:51:56;99557.25;;;14.00;81.63
60069;BME280;45945;53.350;55.922;2022-07-06T01:52:59;99553.75;;;14.03;80.68
60069;BME280;45945;53.350;55.922;2022-07-06T01:54:00;99558.09;;;13.99;80.73
60069;BME280;45945;53.350;55.922;2022-07-06T01:55:01;99558.13;;;14.04;80.56
60069;BME280;45945;53.350;55.922;2022-07-06T01:56:05;99552.03;;;14.06;80.26
60069;BME280;45945;53.350;55.922;2022-07-06T01:57:06;99555.50;;;14.07;79.84
60069;BME280;45945;53.350;55.922;2022-07-06T01:58:07;99548.53;;;14.10;80.67
60069;BME280;45945;53.350;55.922;2022-07-06T01:59:23;99553.84;;;14.18;80.12
60069;BME280;45945;53.350;55.922;2022-07-06T02:00:24;99553.88;;;14.27;80.87
60069;BME280;45945;53.350;55.922;2022-07-06T02:01:25;99556.53;;;14.35;80.00
60069;BME280;45945;53.350;55.922;2022-07-06T02:02:26;99549.56;;;14.49;79.14
60069;BME280;45945;53.350;55.922;2022-07-06T02:03:27;99553.97;;;14.58;79.27
60069;BME280;45945;53.350;55.922;2022-07-06T02:04:28;99557.56;;;14.69;79.59
60069;BME280;45945;53.350;55.922;2022-07-06T02:05:29;99554.06;;;14.70;78.25
60069;BME280;45945;53.350;55.922;2022-07-06T02:06:30;99551.44;;;14.83;78.08
60069;BME280;45945;53.350;55.922;2022-07-06T02:07:30;99555.84;;;14.93;77.81
60069;BME280;45945;53.350;55.922;2022-07-06T02:08:32;99552.31;;;14.89;77.72
60069;BME280;45945;53.350;55.922;2022-07-06T02:09:33;99558.50;;;14.95;77.67
60069;BME280;45945;53.350;55.922;2022-07-06T02:10:35;99557.59;;;14.88;79.10
60069;BME280;45945;53.350;55.922;2022-07-06T02:11:36;99557.59;;;14.97;78.48
60069;BME280;45945;53.350;55.922;2022-07-06T02:12:37;99560.22;;;15.03;78.89
60069;BME280;45945;53.350;55.922;2022-07-06T02:13:38;99566.41;;;15.16;78.20
60069;BME280;45945;53.350;55.922;2022-07-06T02:15:01;99561.13;;;15.27;78.24
60069;BME280;45945;53.350;55.922;2022-07-06T02:16:02;99566.41;;;15.33;78.09
60069;BME280;45945;53.350;55.922;2022-07-06T02:17:04;99555.00;;;15.30;77.82
60069;BME280;45945;53.350;55.922;2022-07-06T02:18:04;99562.91;;;15.20;78.08
60069;BME280;45945;53.350;55.922;2022-07-06T02:19:05;99556.72;;;15.24;77.52
60069;BME280;45945;53.350;55.922;2022-07-06T02:20:06;99561.13;;;15.33;77.32
60069;BME280;45945;53.350;55.922;2022-07-06T02:21:07;99560.25;;;15.31;77.24
60069;BME280;45945;53.350;55.922;2022-07-06T02:22:08;99548.84;;;15.40;77.29
60069;BME280;45945;53.350;55.922;2022-07-06T02:23:09;99550.59;;;15.47;76.69
60069;BME280;45945;53.350;55.922;2022-07-06T02:24:10;99552.34;;;15.50;76.58
60069;BME280;45945;53.350;55.922;2022-07-06T02:25:10;99553.22;;;15.50;76.20
60069;BME280;45945;53.350;55.922;2022-07-06T02:26:13;99554.97;;;15.57;76.67
60069;BME280;45945;53.350;55.922;2022-07-06T02:27:14;99554.97;;;15.65;76.16
60069;BME280;45945;53.350;55.922;2022-07-06T02:28:15;99552.31;;;15.62;75.99
60069;BME280;45945;53.350;55.922;2022-07-06T02:29:16;99550.56;;;15.56;75.66
60069;BME280;45945;53.350;55.922;2022-07-06T02:30:17;99555.84;;;15.63;75.22
60069;BME280;45945;53.350;55.922;2022-07-06T02:31:19;99556.72;;;15.66;74.99
60069;BME280;45945;53.350;55.922;2022-07-06T02:32:21;99554.94;;;15.67;75.28
60069;BME280;45945;53.350;55.922;2022-07-06T02:33:24;99558.50;;;15.78;74.49
60069;BME280;45945;53.350;55.922;2022-07-06T02:34:25;99560.25;;;15.81;74.86
60069;BME280;45945;53.350;55.922;2022-07-06T02:35:27;99556.72;;;15.74;75.30
60069;BME280;45945;53.350;55.922;2022-07-06T02:36:28;99554.09;;;15.65;75.59
60069;BME280;45945;53.350;55.922;2022-07-06T02:37:28;99559.34;;;15.69;75.53
60069;BME280;45945;53.350;55.922;2022-07-06T02:38:29;99560.25;;;15.56;76.33
60069;BME280;45945;53.350;55.922;2022-07-06T02:39:31;99562.00;;;15.55;76.72
60069;BME280;45945;53.350;55.922;2022-07-06T02:40:32;99558.50;;;15.61;76.40
60069;BME280;45945;53.350;55.922;2022-07-06T02:41:33;99554.09;;;15.57;76.69
60069;BME280;45945;53.350;55.922;2022-07-06T02:42:34;99561.13;;;15.59;76.95
60069;BME280;45945;53.350;55.922;2022-07-06T02:43:38;99558.50;;;15.64;77.19
60069;BME280;45945;53.350;55.922;2022-07-06T02:44:39;99555.84;;;15.72;77.13
60069;BME280;45945;53.350;55.922;2022-07-06T02:45:58;99554.94;;;15.76;76.20
60069;BME280;45945;53.350;55.922;2022-07-06T02:47:00;99554.06;;;15.88;76.52
60069;BME280;45945;53.350;55.922;2022-07-06T02:48:02;99550.56;;;15.89;77.01
60069;BME280;45945;53.350;55.922;2022-07-06T02:49:03;99550.53;;;15.97;74.88
60069;BME280;45945;53.350;55.922;2022-07-06T02:50:04;99550.50;;;16.06;74.37
60069;BME280;45945;53.350;55.922;2022-07-06T02:51:05;99552.25;;;16.15;74.35
60069;BME280;45945;53.350;55.922;2022-07-06T02:52:06;99550.44;;;16.24;73.70
60069;BME280;45945;53.350;55.922;2022-07-06T02:53:07;99555.78;;;16.01;74.56
60069;BME280;45945;53.350;55.922;2022-07-06T02:54:08;99548.75;;;16.00;75.28
60069;BME280;45945;53.350;55.922;2022-07-06T02:55:09;99549.66;;;16.02;74.83
60069;BME280;45945;53.350;55.922;2022-07-06T02:56:10;99547.84;;;16.07;74.05
60069;BME280;45945;53.350;55.922;2022-07-06T02:57:11;99550.50;;;16.03;73.64
60069;BME280;45945;53.350;55.922;2022-07-06T02:58:12;99553.16;;;16.01;73.78
60069;BME280;45945;53.350;55.922;2022-07-06T02:59:13;99551.41;;;16.08;73.87
60069;BME280;45945;53.350;55.922;2022-07-06T03:00:14;99546.13;;;16.06;74.31
60069;BME280;45945;53.350;55.922;2022-07-06T03:01:15;99548.78;;;16.05;74.58
60069;BME280;45945;53.350;55.922;2022-07-06T03:02:16;99547.78;;;16.23;73.71
60069;BME280;45945;53.350;55.922;2022-07-06T03:03:17;99547.78;;;16.24;74.15
60069;BME280;45945;53.350;55.922;2022-07-06T03:04:18;99550.44;;;16.24;74.21
60069;BME280;45945;53.350;55.922;2022-07-06T03:05:20;99547.81;;;16.29;74.20
60069;BME280;45945;53.350;55.922;2022-07-06T03:06:20;99552.16;;;16.33;73.94
60069;BME280;45945;53.350;55.922;2022-07-06T03:07:21;99544.25;;;16.33;73.81
60069;BME280;45945;53.350;55.922;2022-07-06T03:08:25;99546.84;;;16.42;73.87
60069;BME280;45945;53.350;55.922;2022-07-06T03:09:26;99546.00;;;16.33;74.37
60069;BME280;45945;53.350;55.922;2022-07-06T03:10:27;99546.94;;;16.22;74.47
60069;BME280;45945;53.350;55.922;2022-07-06T03:11:29;99545.19;;;16.17;73.84
60069;BME280;45945;53.350;55.922;2022-07-06T03:12:30;99549.56;;;16.24;74.75
60069;BME280;45945;53.350;55.922;2022-07-06T03:13:31;99546.88;;;16.36;74.40
60069;BME280;45945;53.350;55.922;2022-07-06T03:14:31;99545.97;;;16.42;73.86
60069;BME280;45945;53.350;55.922;2022-07-06T03:15:32;99549.44;;;16.53;72.87
60069;BME280;45945;53.350;55.922;2022-07-06T03:16:33;99552.94;;;16.55;72.30
60069;BME280;45945;53.350;55.922;2022-07-06T03:17:34;99550.28;;;16.58;73.04
60069;BME280;45945;53.350;55.922;2022-07-06T03:18:34;99550.34;;;16.51;73.09
60069;BME280;45945;53.350;55.922;2022-07-06T03:19:36;99546.78;;;16.59;72.33
60069;BME280;45945;53.350;55.922;2022-07-06T03:20:37;99546.78;;;16.58;71.85
60069;BME280;45945;53.350;55.922;2022-07-06T03:21:41;99547.66;;;16.58;71.88
60069;BME280;45945;53.350;55.922;2022-07-06T03:22:42;99543.22;;;16.59;71.41
60069;BME280;45945;53.350;55.922;2022-07-06T03:23:44;99545.06;;;16.49;71.70
60069;BME280;45945;53.350;55.922;2022-07-06T03:24:45;99547.69;;;16.49;71.94
60069;BME280;45945;53.350;55.922;2022-07-06T03:25:46;99550.31;;;16.54;71.94
60069;BME280;45945;53.350;55.922;2022-07-06T03:26:47;99546.81;;;16.55;71.78
60069;BME280;45945;53.350;55.922;2022-07-06T03:27:49;99541.53;;;16.55;71.85
60069;BME280;45945;53.350;55.922;2022-07-06T03:28:51;99546.75;;;16.64;72.18
60069;BME280;45945;53.350;55.922;2022-07-06T03:29:53;99542.28;;;16.71;72.15
60069;BME280;45945;53.350;55.922;2022-07-06T03:30:54;99536.06;;;16.81;72.78
60069;BME280;45945;53.350;55.922;2022-07-06T03:31:56;99541.38;;;16.79;72.34
60069;BME280;45945;53.350;55.922;2022-07-06T03:32:58;99542.19;;;16.89;71.74
60069;BME280;45945;53.350;55.922;2022-07-06T03:34:01;99541.25;;;17.01;71.93
60069;BME280;45945;53.350;55.922;2022-07-06T03:35:03;99536.81;;;17.08;71.39
60069;BME280;45945;53.350;55.922;2022-07-06T03:36:06;99542.06;;;17.11;71.30
60069;BME280;45945;53.350;55.922;2022-07-06T03:37:09;99536.75;;;17.17;71.41
60069;BME280;45945;53.350;55.922;2022-07-06T03:38:12;99536.66;;;17.25;72.33
60069;BME280;45945;53.350;55.922;2022-07-06T03:39:15;99536.69;;;17.22;71.01
60069;BME280;45945;53.350;55.922;2022-07-06T03:40:16;99531.34;;;17.28;70.51
60069;BME280;45945;53.350;55.922;2022-07-06T03:41:19;99525.00;;;17.50;70.19
60069;BME280;45945;53.350;55.922;2022-07-06T03:42:21;99529.34;;;17.56;69.86
60069;BME280;45945;53.350;55.922;2022-07-06T03:43:22;99530.16;;;17.63;69.08
60069;BME280;45945;53.350;55.922;2022-07-06T03:44:23;99531.75;;;17.79;69.05
60069;BME280;45945;53.350;55.922;2022-07-06T03:45:24;99529.13;;;17.78;69.01
60069;BME280;45945;53.350;55.922;2022-07-06T03:46:27;99529.00;;;17.90;68.43
60069;BME280;45945;53.350;55.922;2022-07-06T03:47:28;99536.00;;;17.97;68.54
60069;BME280;45945;53.350;55.922;2022-07-06T03:48:29;99530.59;;;18.06;67.27
60069;BME280;45945;53.350;55.922;2022-07-06T03:49:30;99530.56;;;18.10;68.54
60069;BME280;45945;53.350;55.922;2022-07-06T03:50:34;99534.19;;;17.99;66.86
60069;BME280;45945;53.350;55.922;2022-07-06T03:51:36;99535.91;;;18.05;67.61
60069;BME280;45945;53.350;55.922;2022-07-06T03:52:37;99526.13;;;18.13;66.44
60069;BME280;45945;53.350;55.922;2022-07-06T03:53:42;99527.84;;;18.16;65.38
60069;BME280;45945;53.350;55.922;2022-07-06T03:54:43;99531.47;;;18.10;65.40
60069;BME280;45945;53.350;55.922;2022-07-06T03:55:45;99532.13;;;18.26;64.85
60069;BME280;45945;53.350;55.922;2022-07-06T03:57:06;99527.59;;;18.37;65.37
60069;BME280;45945;53.350;55.922;2022-07-06T03:58:07;99524.84;;;18.45;64.77
60069;BME280;45945;53.350;55.922;2022-07-06T03:59:10;99536.63;;;18.19;65.81
60069;BME280;45945;53.350;55.922;2022-07-06T04:00:12;99534.81;;;18.21;65.54
60069;BME280;45945;53.350;55.922;2022-07-06T04:01:21;99537.38;;;18.29;66.08
60069;BME280;45945;53.350;55.922;2022-07-06T04:02:21;99534.53;;;18.45;65.04
60069;BME280;45945;53.350;55.922;2022-07-06T04:03:24;99531.66;;;18.63;65.26
60069;BME280;45945;53.350;55.922;2022-07-06T04:04:25;99538.88;;;18.49;64.96
60069;BME280;45945;53.350;55.922;2022-07-06T04:05:27;99538.00;;;18.50;64.06
60069;BME280;45945;53.350;55.922;2022-07-06T04:06:28;99533.22;;;18.75;63.59
60069;BME280;45945;53.350;55.922;2022-07-06T04:07:31;99529.78;;;19.27;62.95
60069;BME280;45945;53.350;55.922;2022-07-06T04:08:32;99534.09;;;19.35;62.29
60069;BME280;45945;53.350;55.922;2022-07-06T04:09:33;99530.25;;;19.53;61.86
60069;BME280;45945;53.350;55.922;2022-07-06T04:10:34;99529.22;;;19.61;61.63
60069;BME280;45945;53.350;55.922;2022-07-06T04:11:36;99528.00;;;19.81;60.33
60069;BME280;45945;53.350;55.922;2022-07-06T04:12:40;99520.53;;;20.01;58.84
60069;BME280;45945;53.350;55.922;2022-07-06T04:13:42;99528.88;;;20.27;57.30
60069;BME280;45945;53.350;55.922;2022-07-06T04:14:43;99530.13;;;20.51;57.16
60069;BME280;45945;53.350;55.922;2022-07-06T04:15:47;99533.56;;;20.54;57.05
60069;BME280;45945;53.350;55.922;2022-07-06T04:16:48;99531.88;;;20.52;57.31
60069;BME280;45945;53.350;55.922;2022-07-06T04:17:48;99532.00;;;20.88;57.93
60069;BME280;45945;53.350;55.922;2022-07-06T04:18:53;99530.97;;;20.92;56.95
60069;BME280;45945;53.350;55.922;2022-07-06T04:19:53;99531.53;;;20.69;57.29
60069;BME280;45945;53.350;55.922;2022-07-06T04:20:55;99530.78;;;20.62;57.61
60069;BME280;45945;53.350;55.922;2022-07-06T04:21:58;99536.13;;;20.59;58.40
60069;BME280;45945;53.350;55.922;2022-07-06T04:22:59;99531.91;;;20.50;59.07
60069;BME280;45945;53.350;55.922;2022-07-06T04:24:01;99531.00;;;20.50;59.22
60069;BME280;45945;53.350;55.922;2022-07-06T04:25:02;99526.25;;;20.25;58.89
60069;BME280;45945;53.350;55.922;2022-07-06T04:26:04;99527.50;;;20.49;59.01
60069;BME280;45945;53.350;55.922;2022-07-06T04:27:07;99533.50;;;20.58;59.14
60069;BME280;45945;53.350;55.922;2022-07-06T04:28:08;99521.56;;;20.79;59.29
60069;BME280;45945;53.350;55.922;2022-07-06T04:29:10;99531.25;;;20.81;59.36
60069;BME280;45945;53.350;55.922;2022-07-06T04:30:12;99521.03;;;21.02;58.79
60069;BME280;45945;53.350;55.922;2022-07-06T04:31:16;99517.66;;;21.30;56.48
60069;BME280;45945;53.350;55.922;2022-07-06T04:33:20;99517.03;;;21.20;57.06
60069;BME280;45945;53.350;55.922;2022-07-06T04:34:23;99518.28;;;21.05;57.71
60069;BME280;45945;53.350;55.922;2022-07-06T04:35:24;99512.75;;;21.49;55.97
60069;BME280;45945;53.350;55.922;2022-07-06T04:36:26;99511.47;;;21.65;56.44
60069;BME280;45945;53.350;55.922;2022-07-06T04:37:29;99505.31;;;21.63;56.58
60069;BME280;45945;53.350;55.922;2022-07-06T04:38:30;99510.50;;;22.01;55.79
60069;BME280;45945;53.350;55.922;2022-07-06T04:39:35;99503.59;;;21.62;57.44
60069;BME280;45945;53.350;55.922;2022-07-06T04:40:36;99500.41;;;21.81;56.39
60069;BME280;45945;53.350;55.922;2022-07-06T04:41:41;99502.06;;;22.16;55.54
60069;BME280;45945;53.350;55.922;2022-07-06T04:42:42;99503.00;;;22.45;55.87
60069;BME280;45945;53.350;55.922;2022-07-06T04:43:43;99508.41;;;23.00;54.11
60069;BME280;45945;53.350;55.922;2022-07-06T04:44:46;99510.97;;;23.31;52.15
60069;BME280;45945;53.350;55.922;2022-07-06T04:45:48;99504.06;;;22.08;54.63
60069;BME280;45945;53.350;55.922;2022-07-06T04:46:49;99505.13;;;22.02;55.70
60069;BME280;45945;53.350;55.922;2022-07-06T04:47:50;99508.22;;;21.54;57.63
60069;BME280;45945;53.350;55.922;2022-07-06T04:48:52;99512.63;;;21.19;58.28
60069;BME280;45945;53.350;55.922;2022-07-06T04:49:58;99511.78;;;21.18;58.73
60069;BME280;45945;53.350;55.922;2022-07-06T04:50:59;99517.78;;;21.25;57.88
60069;BME280;45945;53.350;55.922;2022-07-06T04:52:02;99508.03;;;20.89;58.99
60069;BME280;45945;53.350;55.922;2022-07-06T04:53:04;99512.97;;;20.67;59.68
60069;BME280;45945;53.350;55.922;2022-07-06T04:54:07;99518.59;;;20.52;60.60
60069;BME280;45945;53.350;55.922;2022-07-06T04:55:09;99513.59;;;20.36;60.26
60069;BME280;45945;53.350;55.922;2022-07-06T04:56:11;99515.56;;;20.28;61.31
60069;BME280;45945;53.350;55.922;2022-07-06T04:57:13;99506.78;;;20.25;60.77
60069;BME280;45945;53.350;55.922;2022-07-06T04:58:15;99511.34;;;20.18;61.03
60069;BME280;45945;53.350;55.922;2022-07-06T04:59:16;99510.31;;;20.25;60.41
60069;BME280;45945;53.350;55.922;2022-07-06T05:00:18;99513.41;;;20.47;60.31
60069;BME280;45945;53.350;55.922;2022-07-06T05:01:21;99505.31;;;20.52;58.85
60069;BME280;45945;53.350;55.922;2022-07-06T05:02:23;99519.63;;;20.45;58.31
60069;BME280;45945;53.350;55.922;2022-07-06T05:03:25;99515.56;;;20.28;58.66
60069;BME280;45945;53.350;55.922;2022-07-06T05:04:26;99513.75;;;20.29;59.67
60069;BME280;45945;53.350;55.922;2022-07-06T05:05:29;99510.28;;;20.27;60.50
60069;BME280;45945;53.350;55.922;2022-07-06T05:06:29;99512.06;;;20.26;61.25
60069;BME280;45945;53.350;55.922;2022-07-06T05:07:30;99509.38;;;20.28;61.96
60069;BME280;45945;53.350;55.922;2022-07-06T05:08:34;99511.94;;;20.32;59.84
60069;BME280;45945;53.350;55.922;2022-07-06T05:09:35;99511.25;;;20.23;60.61
60069;BME280;45945;53.350;55.922;2022-07-06T05:10:36;99510.47;;;20.17;59.89
60069;BME280;45945;53.350;55.922;2022-07-06T05:11:37;99506.69;;;20.29;59.25
60069;BME280;45945;53.350;55.922;2022-07-06T05:12:39;99503.44;;;20.15;59.57
60069;BME280;45945;53.350;55.922;2022-07-06T05:13:40;99497.41;;;20.08;59.88
60069;BME280;45945;53.350;55.922;2022-07-06T05:14:41;99501.16;;;19.98;59.84
60069;BME280;45945;53.350;55.922;2022-07-06T05:15:43;99499.31;;;20.00;61.46
60069;BME280;45945;53.350;55.922;2022-07-06T05:16:44;99505.44;;;20.05;60.95
60069;BME280;45945;53.350;55.922;2022-07-06T05:17:44;99503.38;;;20.18;61.20
60069;BME280;45945;53.350;55.922;2022-07-06T05:18:45;99499.69;;;20.25;60.39
60069;BME280;45945;53.350;55.922;2022-07-06T05:19:47;99502.16;;;20.34;60.54
60069;BME280;45945;53.350;55.922;2022-07-06T05:20:48;99509.09;;;20.42;60.42
60069;BME280;45945;53.350;55.922;2022-07-06T05:21:49;99506.69;;;20.29;60.59
60069;BME280;45945;53.350;55.922;2022-07-06T05:22:51;99510.97;;;20.35;61.25
60069;BME280;45945;53.350;55.922;2022-07-06T05:23:56;99507.56;;;20.30;60.81